createdAt,value
2023-03-12T00:00:41.799Z,2.83
2023-03-12T00:03:43.834Z,3.90
2023-03-12T00:06:45.851Z,2.28
2023-03-12T00:09:47.850Z,2.70
2023-03-12T00:12:49.805Z,2.83
2023-03-12T00:15:51.948Z,3.08
2023-03-12T00:18:55.721Z,3.15
2023-03-12T00:21:57.724Z,2.80
2023-03-12T00:24:59.770Z,4.28
2023-03-12T00:28:01.806Z,3.08
2023-03-12T00:31:04.842Z,2.70
2023-03-12T00:34:06.863Z,2.33
2023-03-12T00:37:08.844Z,3.08
2023-03-12T00:40:11.517Z,3.30
2023-03-12T00:43:14.188Z,2.08
2023-03-12T00:46:16.365Z,2.78
2023-03-12T00:49:18.816Z,2.80
2023-03-12T00:52:21.095Z,2.57
2023-03-12T00:55:23.219Z,2.08
2023-03-12T00:58:25.306Z,3.45
2023-03-12T01:01:27.736Z,3.23
2023-03-12T01:04:29.802Z,2.58
2023-03-12T01:07:31.884Z,2.70
2023-03-12T01:10:34.746Z,2.95
2023-03-12T01:13:36.756Z,3.53
2023-03-12T01:16:39.244Z,2.00
2023-03-12T01:19:41.279Z,2.58
2023-03-12T01:22:44.205Z,2.20
2023-03-12T01:25:47.572Z,2.28
2023-03-12T01:28:50.067Z,2.30
2023-03-12T01:31:52.966Z,2.10
2023-03-12T01:34:55.078Z,2.25
2023-03-12T01:37:57.116Z,2.70
2023-03-12T01:40:59.240Z,2.78
2023-03-12T01:44:03.743Z,2.47
2023-03-12T01:47:06.658Z,2.78
2023-03-12T01:50:08.989Z,3.25
2023-03-12T01:53:11.582Z,1.33
2023-03-12T01:56:15.261Z,2.70
2023-03-12T01:59:21.647Z,2.58
2023-03-12T02:02:27.209Z,2.47
2023-03-12T02:05:43.786Z,2.42
2023-03-12T02:08:47.186Z,2.50
2023-03-12T02:11:49.571Z,2.20
2023-03-12T02:14:51.959Z,3.30
2023-03-12T02:17:54.628Z,3.13
2023-03-12T02:21:16.307Z,3.17
2023-03-12T02:24:34.036Z,1.63
2023-03-12T02:27:37.477Z,2.25
2023-03-12T02:30:42.751Z,2.28
2023-03-12T02:33:45.083Z,1.70
2023-03-12T02:36:48.019Z,1.83
2023-03-12T02:39:53.820Z,2.38
2023-03-12T02:42:56.372Z,2.75
2023-03-12T02:45:58.649Z,2.88
2023-03-12T02:49:00.948Z,2.47
2023-03-12T02:52:03.536Z,4.40
2023-03-12T02:55:06.030Z,2.70
2023-03-12T02:58:08.152Z,1.90
2023-03-12T03:01:10.157Z,2.47
2023-03-12T03:04:12.516Z,2.10
2023-03-12T03:07:15.063Z,2.67
2023-03-12T03:10:17.568Z,1.90
2023-03-12T03:13:19.856Z,2.85
2023-03-12T03:16:22.034Z,3.53
2023-03-12T03:19:24.102Z,2.42
2023-03-12T03:22:26.230Z,3.47
2023-03-12T03:25:28.322Z,1.20
2023-03-12T03:28:30.463Z,3.08
2023-03-12T03:31:32.775Z,2.35
2023-03-12T03:34:35.120Z,2.30
2023-03-12T03:37:37.149Z,2.83
2023-03-12T03:40:39.091Z,2.28
2023-03-12T03:43:41.136Z,2.45
2023-03-12T03:46:44.398Z,3.65
2023-03-12T03:49:47.093Z,2.63
2023-03-12T03:52:49.124Z,2.63
2023-03-12T03:55:51.255Z,2.13
2023-03-12T03:58:53.373Z,2.28
2023-03-12T04:01:56.718Z,2.53
2023-03-12T04:04:59.592Z,3.10
2023-03-12T04:08:03.387Z,2.03
2023-03-12T04:11:09.044Z,3.53
2023-03-12T04:14:11.152Z,3.53
2023-03-12T04:17:15.653Z,2.38
2023-03-12T04:20:17.687Z,3.22
2023-03-12T04:23:19.889Z,2.58
2023-03-12T04:26:21.972Z,2.10
2023-03-12T04:29:24.496Z,2.30
2023-03-12T04:32:27.497Z,2.42
2023-03-12T04:35:29.564Z,3.17
2023-03-12T04:38:31.770Z,2.40
2023-03-12T04:41:34.734Z,3.15
2023-03-12T04:44:41.856Z,2.70
2023-03-12T04:47:44.179Z,3.17
2023-03-12T04:50:46.670Z,1.77
2023-03-12T04:53:48.910Z,1.67
2023-03-12T04:56:51.370Z,2.77
2023-03-12T04:59:55.931Z,2.35
2023-03-12T05:02:58.894Z,3.38
2023-03-12T05:06:01.003Z,3.73
2023-03-12T05:09:04.056Z,3.97
2023-03-12T05:12:06.583Z,4.10
2023-03-12T05:15:09.127Z,5.20
2023-03-12T05:18:11.668Z,3.72
2023-03-12T05:21:15.089Z,3.90
2023-03-12T05:24:18.113Z,3.72
2023-03-12T05:27:20.256Z,3.33
2023-03-12T05:30:22.781Z,6.20
2023-03-12T05:33:25.782Z,4.80
2023-03-12T05:36:28.050Z,4.07
2023-03-12T05:39:30.391Z,3.72
2023-03-12T05:42:38.087Z,5.25
2023-03-12T05:45:42.739Z,4.88
2023-03-12T05:48:45.066Z,4.05
2023-03-12T05:51:47.701Z,3.35
2023-03-12T05:54:52.015Z,5.20
2023-03-12T05:57:54.338Z,3.30
2023-03-12T06:00:56.494Z,3.95
2023-03-12T06:03:59.379Z,4.97
2023-03-12T06:07:02.062Z,4.80
2023-03-12T06:10:04.937Z,6.38
2023-03-12T06:13:07.412Z,5.45
2023-03-12T06:16:12.342Z,6.72
2023-03-12T06:19:14.526Z,6.32
2023-03-12T06:22:18.576Z,5.68
2023-03-12T06:25:20.624Z,5.88
2023-03-12T06:28:22.653Z,4.90
2023-03-12T06:31:24.918Z,5.25
2023-03-12T06:34:26.975Z,2.53
2023-03-12T06:37:29.120Z,5.37
2023-03-12T06:40:31.140Z,6.13
2023-03-12T06:43:34.051Z,6.45
2023-03-12T06:46:37.152Z,5.57
2023-03-12T06:49:39.340Z,5.45
2023-03-12T06:52:41.590Z,5.10
2023-03-12T06:55:44.152Z,5.30
2023-03-12T06:58:46.172Z,5.20
2023-03-12T07:01:48.924Z,6.28
2023-03-12T07:04:50.999Z,5.15
2023-03-12T07:07:53.161Z,6.03
2023-03-12T07:10:55.347Z,6.45
2023-03-12T07:13:57.736Z,7.25
2023-03-12T07:17:02.040Z,6.22
2023-03-12T07:20:04.311Z,5.43
2023-03-12T07:23:06.639Z,5.50
2023-03-12T07:26:08.641Z,6.43
2023-03-12T07:29:10.787Z,5.63
2023-03-12T07:32:12.859Z,6.55
2023-03-12T07:35:14.885Z,8.25
2023-03-12T07:38:16.991Z,8.00
2023-03-12T07:41:19.268Z,6.38
2023-03-12T07:44:21.301Z,6.35
2023-03-12T07:47:24.636Z,5.55
2023-03-12T07:50:26.919Z,6.22
2023-03-12T07:53:28.937Z,5.15
2023-03-12T07:56:31.035Z,6.07
2023-03-12T07:59:33.423Z,4.60
2023-03-12T08:02:35.582Z,5.65
2023-03-12T08:05:37.768Z,4.88
2023-03-12T08:08:41.910Z,5.03
2023-03-12T08:11:44.639Z,4.60
2023-03-12T08:14:46.891Z,4.38
2023-03-12T08:17:49.117Z,4.28
2023-03-12T08:20:52.110Z,4.27
2023-03-12T08:23:54.130Z,4.30
2023-03-12T08:26:56.278Z,4.18
2023-03-12T08:29:58.313Z,5.55
2023-03-12T08:33:00.419Z,5.28
2023-03-12T08:36:02.665Z,6.63
2023-03-12T08:39:04.638Z,4.20
2023-03-12T08:42:07.821Z,4.78
2023-03-12T08:45:10.773Z,4.97
2023-03-12T08:48:12.761Z,4.73
2023-03-12T08:51:16.800Z,4.75
2023-03-12T08:54:19.465Z,5.93
2023-03-12T08:57:21.516Z,6.30
2023-03-12T09:00:25.170Z,5.57
2023-03-12T09:03:27.422Z,4.50
2023-03-12T09:06:29.492Z,5.75
2023-03-12T09:09:31.569Z,5.35
2023-03-12T09:12:33.712Z,6.10
2023-03-12T09:15:35.730Z,5.57
2023-03-12T09:18:39.916Z,4.70
2023-03-12T09:21:42.063Z,4.68
2023-03-12T09:24:44.239Z,4.65
2023-03-12T09:27:47.541Z,5.10
2023-03-12T09:30:49.676Z,4.60
2023-03-12T09:33:51.985Z,4.73
2023-03-12T09:36:54.068Z,4.28
2023-03-12T09:39:56.177Z,5.68
2023-03-12T09:42:59.974Z,5.22
2023-03-12T09:46:02.514Z,4.90
2023-03-12T09:49:13.997Z,5.13
2023-03-12T09:52:25.431Z,5.32
2023-03-12T09:55:28.554Z,5.32
2023-03-12T09:58:32.055Z,5.90
2023-03-12T10:01:46.063Z,33.40
2023-03-12T10:04:59.705Z,5.13
2023-03-12T10:08:22.782Z,4.75
2023-03-12T10:11:44.655Z,5.07
2023-03-12T10:15:01.815Z,5.28
2023-03-12T10:18:16.952Z,4.77
2023-03-12T10:21:22.964Z,4.70
2023-03-12T10:24:39.390Z,5.13
2023-03-12T10:27:41.976Z,4.65
2023-03-12T10:30:47.280Z,4.18
2023-03-12T10:33:59.214Z,5.23
2023-03-12T10:37:05.251Z,4.30
2023-03-12T10:40:08.533Z,4.53
2023-03-12T10:43:10.602Z,5.05
2023-03-12T10:46:15.625Z,5.18
2023-03-12T10:49:23.438Z,5.20
2023-03-12T10:52:25.373Z,4.70
2023-03-12T10:55:32.493Z,5.47
2023-03-12T10:58:36.643Z,4.55
2023-03-12T11:01:46.799Z,4.80
2023-03-12T11:04:52.679Z,4.70
2023-03-12T11:07:54.876Z,4.40
2023-03-12T11:10:58.826Z,4.82
2023-03-12T11:14:08.395Z,5.22
2023-03-12T11:17:19.948Z,5.22
2023-03-12T11:20:21.968Z,5.20
2023-03-12T11:23:25.941Z,6.10
2023-03-12T11:26:33.266Z,5.38
2023-03-12T11:29:40.388Z,4.53
2023-03-12T11:32:46.115Z,5.65
2023-03-12T11:35:57.599Z,3.97
2023-03-12T11:38:59.626Z,5.17
2023-03-12T11:42:01.623Z,4.50
2023-03-12T11:45:22.447Z,4.28
2023-03-12T11:48:42.984Z,4.78
2023-03-12T11:51:50.146Z,3.93
2023-03-12T11:54:54.924Z,4.93
2023-03-12T11:58:15.582Z,5.93
2023-03-12T12:01:17.586Z,5.68
2023-03-12T12:04:19.536Z,4.85
2023-03-12T12:07:47.915Z,4.80
2023-03-12T12:10:52.929Z,5.07
2023-03-12T12:14:01.608Z,5.53
2023-03-12T12:17:15.936Z,5.97
2023-03-12T12:20:34.168Z,5.43
2023-03-12T12:23:45.307Z,5.00
2023-03-12T12:26:58.414Z,4.83
2023-03-12T12:30:03.451Z,5.25
2023-03-12T12:33:17.382Z,5.05
2023-03-12T12:36:19.355Z,5.05
2023-03-12T12:39:30.053Z,5.00
2023-03-12T12:42:33.738Z,4.67
2023-03-12T12:45:38.764Z,4.90
2023-03-12T12:48:46.510Z,4.93
2023-03-12T12:51:51.877Z,4.70
2023-03-12T12:55:16.679Z,5.33
2023-03-12T12:58:26.368Z,5.07
2023-03-12T13:01:28.722Z,5.50
2023-03-12T13:04:32.697Z,5.13
2023-03-12T13:07:34.764Z,5.75
2023-03-12T13:10:48.527Z,5.53
2023-03-12T13:14:02.489Z,5.77
2023-03-12T13:17:09.188Z,5.00
2023-03-12T13:20:11.179Z,5.78
2023-03-12T13:23:19.111Z,4.68
2023-03-12T13:26:27.505Z,4.63
2023-03-12T13:29:29.561Z,5.30
2023-03-12T13:32:34.700Z,5.00
2023-03-12T13:35:37.619Z,4.90
2023-03-12T13:38:53.400Z,5.10
2023-03-12T13:41:56.303Z,5.57
2023-03-12T13:45:11.255Z,5.70
2023-03-12T13:48:15.934Z,5.55
2023-03-12T13:51:17.879Z,5.05
2023-03-12T13:54:20.317Z,5.38
2023-03-12T13:57:29.284Z,4.30
2023-03-12T14:00:36.419Z,5.50
2023-03-12T14:03:42.770Z,4.97
2023-03-12T14:07:02.812Z,4.20
2023-03-12T14:10:23.168Z,5.13
2023-03-12T14:13:27.960Z,4.73
2023-03-12T14:16:33.126Z,5.13
2023-03-12T14:19:35.497Z,3.72
2023-03-12T14:22:38.820Z,4.75
2023-03-12T14:25:43.592Z,5.07
2023-03-12T14:28:46.440Z,4.93
2023-03-12T14:31:49.495Z,4.40
2023-03-12T14:34:54.318Z,4.63
2023-03-12T14:37:59.761Z,4.90
2023-03-12T14:41:04.053Z,4.07
2023-03-12T14:44:22.890Z,3.93
2023-03-12T14:47:25.030Z,4.20
2023-03-12T14:50:28.958Z,5.03
2023-03-12T14:53:32.627Z,4.57
2023-03-12T14:56:35.989Z,4.50
2023-03-12T14:59:39.207Z,4.10
2023-03-12T15:02:42.128Z,4.77
2023-03-12T15:05:47.879Z,5.20
2023-03-12T15:08:50.007Z,4.70
2023-03-12T15:12:03.169Z,5.03
2023-03-12T15:15:09.658Z,4.77
2023-03-12T15:18:13.846Z,5.23
2023-03-12T15:21:16.387Z,4.57
2023-03-12T15:24:19.086Z,4.45
2023-03-12T15:27:29.780Z,4.20
2023-03-12T15:30:32.403Z,4.47
2023-03-12T15:33:34.988Z,3.97
2023-03-12T15:36:47.497Z,5.22
2023-03-12T15:39:50.876Z,3.88
2023-03-12T15:42:57.486Z,3.85
2023-03-12T15:46:03.723Z,4.37
2023-03-12T15:49:05.801Z,4.40
2023-03-12T15:52:19.824Z,4.25
2023-03-12T15:55:25.529Z,3.90
2023-03-12T15:58:33.300Z,4.13
2023-03-12T16:01:51.573Z,4.95
2023-03-12T16:04:53.729Z,3.95
2023-03-12T16:07:55.905Z,3.38
2023-03-12T16:10:57.959Z,3.90
2023-03-12T16:14:15.177Z,4.50
2023-03-12T16:17:17.980Z,3.03
2023-03-12T16:20:20.159Z,4.27
2023-03-12T16:23:22.235Z,4.30
2023-03-12T16:26:24.322Z,5.55
2023-03-12T16:29:31.563Z,5.20
2023-03-12T16:32:33.606Z,4.22
2023-03-12T16:35:35.711Z,4.70
2023-03-12T16:38:37.807Z,4.22
2023-03-12T16:41:40.059Z,4.23
2023-03-12T16:44:42.670Z,4.68
2023-03-12T16:47:45.820Z,6.22
2023-03-12T16:50:49.484Z,5.78
2023-03-12T16:54:06.936Z,6.43
2023-03-12T16:57:19.042Z,5.68
2023-03-12T17:00:22.513Z,6.22
2023-03-12T17:03:45.498Z,8.67
2023-03-12T17:06:47.571Z,6.93
2023-03-12T17:09:49.670Z,7.05
2023-03-12T17:12:52.313Z,9.07
2023-03-12T17:15:54.632Z,12.27
2023-03-12T17:18:56.959Z,10.85
2023-03-12T17:21:59.540Z,11.57
2023-03-12T17:25:01.669Z,10.53
2023-03-12T17:28:03.713Z,11.18
2023-03-12T17:31:05.816Z,10.23
2023-03-12T17:34:08.877Z,9.90
2023-03-12T17:37:11.031Z,9.75
2023-03-12T17:40:13.253Z,12.30
2023-03-12T17:43:15.342Z,10.02
2023-03-12T17:46:17.599Z,8.40
2023-03-12T17:49:19.600Z,8.10
2023-03-12T17:52:21.628Z,8.75
2023-03-12T17:55:23.631Z,7.17
2023-03-12T17:58:25.724Z,14.35
2023-03-12T18:01:27.755Z,13.77
2023-03-12T18:04:29.821Z,22.23
2023-03-12T18:07:31.927Z,18.73
2023-03-12T18:10:34.054Z,18.38
2023-03-12T18:13:36.135Z,17.38
2023-03-12T18:16:38.283Z,19.75
2023-03-12T18:19:40.354Z,18.58
2023-03-12T18:22:43.404Z,18.05
2023-03-12T18:25:46.200Z,12.77
2023-03-12T18:28:49.329Z,11.27
2023-03-12T18:31:51.374Z,12.95
2023-03-12T18:34:53.435Z,15.40
2023-03-12T18:37:56.023Z,9.52
2023-03-12T18:41:08.899Z,8.73
2023-03-12T18:44:10.956Z,8.05
2023-03-12T18:47:13.003Z,10.73
2023-03-12T18:50:14.995Z,9.32
2023-03-12T18:53:17.314Z,10.73
2023-03-12T18:56:19.345Z,10.10
2023-03-12T18:59:21.475Z,11.80
2023-03-12T19:02:23.841Z,7.95
2023-03-12T19:05:25.987Z,7.40
2023-03-12T19:08:28.725Z,7.22
2023-03-12T19:11:30.778Z,6.43
2023-03-12T19:14:32.774Z,7.43
2023-03-12T19:17:34.882Z,6.95
2023-03-12T19:20:37.734Z,6.75
2023-03-12T19:23:40.177Z,7.13
2023-03-12T19:26:42.327Z,7.43
2023-03-12T19:29:44.405Z,8.05
2023-03-12T19:32:46.439Z,6.80
2023-03-12T19:35:48.474Z,6.30
2023-03-12T19:38:50.558Z,6.15
2023-03-12T19:41:52.644Z,6.40
2023-03-12T19:44:54.672Z,6.30
2023-03-12T19:47:56.941Z,8.25
2023-03-12T19:51:04.448Z,10.00
2023-03-12T19:54:06.638Z,12.75
2023-03-12T19:57:08.677Z,14.87
2023-03-12T20:00:12.384Z,14.40
2023-03-12T20:03:14.499Z,17.25
2023-03-12T20:06:16.610Z,22.57
2023-03-12T20:09:18.605Z,19.08
2023-03-12T20:12:20.643Z,19.83
2023-03-12T20:15:22.731Z,14.60
2023-03-12T20:18:24.759Z,15.00
2023-03-12T20:21:28.433Z,12.95
2023-03-12T20:24:31.539Z,10.88
2023-03-12T20:27:34.306Z,10.67
2023-03-12T20:30:37.267Z,8.18
2023-03-12T20:33:39.343Z,6.80
2023-03-12T20:36:41.382Z,7.40
2023-03-12T20:39:43.519Z,7.65
2023-03-12T20:42:45.553Z,7.03
2023-03-12T20:45:48.301Z,8.60
2023-03-12T20:48:50.326Z,9.20
2023-03-12T20:51:52.420Z,7.30
2023-03-12T20:54:54.451Z,8.40
2023-03-12T20:57:56.484Z,8.57
2023-03-12T21:01:01.877Z,7.10
2023-03-12T21:04:03.931Z,7.35
2023-03-12T21:07:05.988Z,7.23
2023-03-12T21:10:08.444Z,7.30
2023-03-12T21:13:10.618Z,7.35
2023-03-12T21:16:12.740Z,8.00
2023-03-12T21:19:14.862Z,7.88
2023-03-12T21:22:16.905Z,8.15
2023-03-12T21:25:19.073Z,9.13
2023-03-12T21:28:21.108Z,7.37
2023-03-12T21:31:23.657Z,7.30
2023-03-12T21:34:29.061Z,7.85
2023-03-12T21:37:31.123Z,9.63
2023-03-12T21:40:33.124Z,7.45
2023-03-12T21:43:35.580Z,8.20
2023-03-12T21:46:38.004Z,7.88
2023-03-12T21:49:40.048Z,7.63
2023-03-12T21:52:47.773Z,8.48
2023-03-12T21:55:56.873Z,10.10
2023-03-12T21:58:58.981Z,7.93
2023-03-12T22:02:00.991Z,8.20
2023-03-12T22:05:04.497Z,5.53
2023-03-12T22:08:06.500Z,8.53
2023-03-12T22:11:08.984Z,7.72
2023-03-12T22:14:11.075Z,8.25
2023-03-12T22:17:13.052Z,7.30
2023-03-12T22:20:15.115Z,9.40
2023-03-12T22:23:17.125Z,8.73
2023-03-12T22:26:20.250Z,7.78
2023-03-12T22:29:22.306Z,7.73
2023-03-12T22:32:25.668Z,6.95
2023-03-12T22:35:27.746Z,6.93
2023-03-12T22:38:29.788Z,7.50
2023-03-12T22:41:32.162Z,7.20
2023-03-12T22:44:34.175Z,7.85
2023-03-12T22:47:36.176Z,7.25
2023-03-12T22:50:38.222Z,7.35
2023-03-12T22:53:40.285Z,7.18
2023-03-12T22:56:42.343Z,7.43
2023-03-12T22:59:44.371Z,6.50
2023-03-12T23:02:46.352Z,5.40
2023-03-12T23:05:48.412Z,6.68
2023-03-12T23:08:50.468Z,6.47
2023-03-12T23:11:52.545Z,4.65
2023-03-12T23:14:54.530Z,5.50
2023-03-12T23:17:56.559Z,6.18
2023-03-12T23:21:02.712Z,3.67
2023-03-12T23:24:04.822Z,5.55
2023-03-12T23:27:07.016Z,6.20
2023-03-12T23:30:09.403Z,5.13
2023-03-12T23:33:11.386Z,6.43
2023-03-12T23:36:14.979Z,5.35
2023-03-12T23:39:17.004Z,4.70
2023-03-12T23:42:19.003Z,5.47
2023-03-12T23:45:21.037Z,4.30
2023-03-12T23:48:23.167Z,5.13
2023-03-12T23:51:26.868Z,5.82
2023-03-12T23:54:29.004Z,6.28
2023-03-12T23:57:31.035Z,4.75
